Time;durP1;ratioP1;P1;durP2;ratioP2;P2;SDS_P1;SDS_P2;PMS_P1;PMS_P2;Temp;Humidity;BMP_temperature;BMP_pressure;BME280_temperature;BME280_humidity;BME280_pressure;Samples;Min_cycle;Max_cycle;Signal;HPM_P1;HPM_P2
2024/01/02 00:02:16;;;;;;;3.67;1.50;;;5.20;99.90;;;;;;5044048;28;20045;-79
2024/01/02 00:05:07;;;;;;;3.85;1.70;;;5.20;99.90;;;;;;5045133;28;20072;-81
2024/01/02 00:07:54;;;;;;;8.35;1.70;;;5.20;99.90;;;;;;5063373;28;20090;-82
2024/01/02 00:10:43;;;;;;;6.07;1.55;;;5.20;99.90;;;;;;5048031;28;20457;-78
2024/01/02 00:13:35;;;;;;;6.40;1.70;;;5.30;99.90;;;;;;5064718;28;20051;-80
2024/01/02 00:16:23;;;;;;;4.15;1.65;;;5.30;99.90;;;;;;5057840;28;20409;-76
2024/01/02 00:19:10;;;;;;;3.35;1.70;;;5.30;99.90;;;;;;5064335;28;20044;-74
2024/01/02 00:21:59;;;;;;;7.88;1.70;;;5.30;99.90;;;;;;5061720;28;20147;-80
2024/01/02 00:24:46;;;;;;;9.80;2.30;;;5.30;99.90;;;;;;5067574;28;20041;-76
2024/01/02 00:27:34;;;;;;;4.53;1.90;;;5.20;99.90;;;;;;5074579;28;20040;-74
2024/01/02 00:30:22;;;;;;;7.65;1.92;;;5.20;99.90;;;;;;5072947;28;20159;-79
2024/01/02 00:33:09;;;;;;;5.95;1.48;;;5.20;99.90;;;;;;5085089;28;20048;-76
2024/01/02 00:35:58;;;;;;;7.40;1.55;;;5.10;99.90;;;;;;5063444;28;20054;-76
2024/01/02 00:38:47;;;;;;;7.10;1.92;;;5.10;99.90;;;;;;5068369;28;20037;-80
2024/01/02 00:41:37;;;;;;;4.30;1.70;;;5.10;99.90;;;;;;5069039;28;20052;-77
2024/01/02 00:44:25;;;;;;;8.18;1.95;;;5.10;99.90;;;;;;5074239;28;20143;-76
2024/01/02 00:47:13;;;;;;;5.90;1.52;;;5.10;99.90;;;;;;5061118;28;20048;-79
2024/01/02 00:50:03;;;;;;;4.57;1.70;;;5.10;99.90;;;;;;5060845;28;20036;-79
2024/01/02 00:52:50;;;;;;;5.03;1.45;;;5.10;99.90;;;;;;5061258;28;21169;-80
2024/01/02 00:55:38;;;;;;;6.47;1.63;;;5.10;99.90;;;;;;5059906;28;20052;-80
2024/01/02 00:58:25;;;;;;;4.00;1.60;;;5.20;99.90;;;;;;5061763;28;20084;-79
2024/01/02 01:01:18;;;;;;;3.97;1.45;;;5.20;99.90;;;;;;5017550;28;20061;-79
2024/01/02 01:04:08;;;;;;;5.50;1.25;;;5.20;99.90;;;;;;5038291;28;20053;-78
2024/01/02 01:06:57;;;;;;;4.15;1.55;;;5.20;99.90;;;;;;5053057;28;20040;-78
2024/01/02 01:09:48;;;;;;;6.20;1.63;;;5.20;99.90;;;;;;5036018;28;20048;-77
2024/01/02 01:12:36;;;;;;;4.47;1.67;;;5.20;99.90;;;;;;5039073;28;20052;-75
2024/01/02 01:15:23;;;;;;;6.15;1.70;;;5.20;99.90;;;;;;5058999;28;20045;-75
2024/01/02 01:18:12;;;;;;;2.78;1.30;;;5.10;99.90;;;;;;5051993;28;20048;-78
2024/01/02 01:21:03;;;;;;;3.95;1.40;;;5.20;99.90;;;;;;5034215;28;20072;-79
2024/01/02 01:23:50;;;;;;;3.65;1.63;;;5.20;99.90;;;;;;5040591;28;20041;-78
2024/01/02 01:26:41;;;;;;;4.72;1.60;;;5.20;99.90;;;;;;5025745;28;20048;-81
2024/01/02 01:29:28;;;;;;;5.18;1.52;;;5.30;99.90;;;;;;5027382;28;20044;-78
2024/01/02 01:32:16;;;;;;;3.33;1.83;;;5.20;99.90;;;;;;5040637;28;20044;-78
2024/01/02 01:35:03;;;;;;;3.28;1.60;;;5.20;99.90;;;;;;5042331;28;20168;-80
2024/01/02 01:37:51;;;;;;;5.68;1.75;;;5.10;99.90;;;;;;5039392;28;20114;-79
2024/01/02 01:40:38;;;;;;;4.35;1.40;;;5.20;99.90;;;;;;5037113;28;20049;-80
2024/01/02 01:43:28;;;;;;;3.85;1.85;;;5.20;99.90;;;;;;5042967;28;20041;-80
2024/01/02 01:46:17;;;;;;;3.30;1.40;;;5.20;99.90;;;;;;5042322;28;20048;-81
2024/01/02 01:49:07;;;;;;;3.75;1.38;;;5.20;99.90;;;;;;5041358;28;20057;-76
2024/01/02 01:51:58;;;;;;;3.63;1.33;;;5.20;99.90;;;;;;5040041;28;20041;-78
2024/01/02 01:54:45;;;;;;;2.40;1.42;;;5.20;99.90;;;;;;5026952;28;20124;-77
2024/01/02 01:57:33;;;;;;;3.60;1.45;;;5.20;99.90;;;;;;5040833;28;20065;-79
2024/01/02 02:00:24;;;;;;;2.33;1.55;;;5.20;99.90;;;;;;5055128;28;20060;-78
2024/01/02 02:03:13;;;;;;;2.83;1.40;;;5.20;99.90;;;;;;5035096;28;20056;-75
2024/01/02 02:06:01;;;;;;;2.03;1.40;;;5.20;99.90;;;;;;5053556;28;20280;-78
2024/01/02 02:08:50;;;;;;;2.20;1.27;;;5.20;99.90;;;;;;5045001;28;20055;-77
2024/01/02 02:11:38;;;;;;;1.95;1.20;;;5.20;99.90;;;;;;5046255;28;20045;-75
2024/01/02 02:14:26;;;;;;;3.88;1.52;;;5.20;99.90;;;;;;5063825;28;20113;-77
2024/01/02 02:17:19;;;;;;;3.63;1.30;;;5.10;99.90;;;;;;5072354;28;20089;-80
2024/01/02 02:20:07;;;;;;;5.03;1.50;;;5.10;99.90;;;;;;5057654;28;20158;-77
2024/01/02 02:22:54;;;;;;;3.50;1.63;;;5.00;99.90;;;;;;5060084;28;20086;-81
2024/01/02 02:25:43;;;;;;;3.17;1.63;;;4.90;1.00;;;;;;5060681;28;20123;-77
2024/01/02 02:28:30;;;;;;;3.10;1.70;;;4.70;2.40;;;;;;5052868;28;20501;-78
2024/01/02 02:31:19;;;;;;;4.78;1.63;;;4.70;99.90;;;;;;5031735;28;20042;-78
2024/01/02 02:34:09;;;;;;;2.58;1.27;;;4.70;99.90;;;;;;5045021;28;20049;-75
2024/01/02 02:36:58;;;;;;;3.15;1.35;;;4.60;99.90;;;;;;5035946;28;20393;-82
2024/01/02 02:39:45;;;;;;;1.88;1.65;;;4.60;99.90;;;;;;5039713;28;20060;-78
2024/01/02 02:42:32;;;;;;;3.08;1.52;;;4.60;99.90;;;;;;5045076;28;20044;-78
2024/01/02 02:45:20;;;;;;;2.28;1.60;;;4.60;1.00;;;;;;5069416;28;20082;-78
2024/01/02 02:48:07;;;;;;;5.97;1.52;;;4.50;99.90;;;;;;5068102;28;20319;-80
2024/01/02 02:50:58;;;;;;;2.92;1.38;;;4.50;75.80;;;;;;5062426;28;20040;-81
2024/01/02 02:53:48;;;;;;;2.15;1.40;;;4.50;48.60;;;;;;5058507;28;20051;-77
2024/01/02 02:56:35;;;;;;;4.40;1.50;;;4.50;99.90;;;;;;5048378;28;20049;-81
2024/01/02 02:59:23;;;;;;;4.85;1.63;;;4.50;99.90;;;;;;5055565;28;20044;-80
2024/01/02 03:02:10;;;;;;;3.00;1.30;;;4.50;99.90;;;;;;5063245;28;20065;-79
2024/01/02 03:04:58;;;;;;;4.38;1.10;;;4.60;1.00;;;;;;5059345;28;20041;-81
2024/01/02 03:07:46;;;;;;;3.08;1.33;;;4.70;99.90;;;;;;5059079;28;20037;-77
2024/01/02 03:10:34;;;;;;;3.25;1.10;;;4.70;99.90;;;;;;5064244;28;20131;-79
2024/01/02 03:13:26;;;;;;;4.07;1.35;;;4.70;99.90;;;;;;5062546;28;20220;-79
2024/01/02 03:16:14;;;;;;;4.00;1.33;;;4.80;99.70;;;;;;5051328;28;20143;-75
2024/01/02 03:19:03;;;;;;;6.43;1.30;;;4.80;99.90;;;;;;5081895;28;20040;-76
2024/01/02 03:21:50;;;;;;;1.27;1.10;;;4.70;99.90;;;;;;5067539;28;20047;-75
2024/01/02 03:24:37;;;;;;;2.30;0.93;;;4.70;99.90;;;;;;5080353;28;20480;-79
2024/01/02 03:27:26;;;;;;;3.20;1.20;;;4.80;99.90;;;;;;5059049;28;20059;-73
2024/01/02 03:30:15;;;;;;;2.33;1.23;;;4.80;99.90;;;;;;5064179;28;20056;-81
2024/01/02 03:33:04;;;;;;;3.78;1.23;;;4.80;99.90;;;;;;5049686;28;20097;-80
2024/01/02 03:35:53;;;;;;;1.17;1.00;;;4.80;99.90;;;;;;5062842;28;20041;-81
2024/01/02 03:38:41;;;;;;;3.03;1.00;;;4.90;99.90;;;;;;5046001;28;20056;-81
2024/01/02 03:41:31;;;;;;;2.25;1.10;;;4.90;1.00;;;;;;5042931;28;20045;-80
2024/01/02 03:44:18;;;;;;;1.17;1.00;;;4.90;1.00;;;;;;5063011;28;20044;-79
2024/01/02 03:47:06;;;;;;;2.80;1.10;;;4.90;1.00;;;;;;5062870;28;20134;-82
2024/01/02 03:49:54;;;;;;;2.35;0.90;;;4.90;1.00;;;;;;5062071;28;20045;-77
2024/01/02 03:52:47;;;;;;;1.02;1.02;;;5.00;1.00;;;;;;5070517;28;20048;-76
2024/01/02 03:55:34;;;;;;;1.50;1.02;;;4.90;1.00;;;;;;5068691;28;20143;-82
2024/01/02 03:58:23;;;;;;;1.10;1.00;;;4.90;1.00;;;;;;5058221;28;20044;-80
2024/01/02 04:01:10;;;;;;;1.30;1.20;;;4.90;1.00;;;;;;5064760;28;20072;-80
2024/01/02 04:03:57;;;;;;;1.48;1.00;;;4.80;1.00;;;;;;5073253;28;20086;-79
2024/01/02 04:06:46;;;;;;;3.85;1.10;;;4.80;1.00;;;;;;5073129;28;20041;-77
2024/01/02 04:09:35;;;;;;;1.17;1.08;;;4.80;1.00;;;;;;5055627;28;20129;-81
2024/01/02 04:12:22;;;;;;;1.38;1.15;;;4.80;1.40;;;;;;5054462;28;20045;-76
2024/01/02 04:15:11;;;;;;;1.73;1.00;;;4.70;15.40;;;;;;5070838;28;20048;-82
2024/01/02 04:18:00;;;;;;;1.75;1.00;;;4.80;1.00;;;;;;5066611;28;20634;-82
2024/01/02 04:20:49;;;;;;;2.70;1.10;;;4.80;1.00;;;;;;5062020;28;20166;-79
2024/01/02 04:23:36;;;;;;;2.30;1.05;;;4.80;25.10;;;;;;5060014;28;20053;-81
2024/01/02 04:26:23;;;;;;;0.90;0.90;;;4.70;30.70;;;;;;5060080;28;20523;-79
2024/01/02 04:29:11;;;;;;;1.80;1.00;;;4.70;54.40;;;;;;5060877;28;20144;-82
2024/01/02 04:31:59;;;;;;;1.77;1.20;;;4.70;56.70;;;;;;5063069;28;20044;-82
2024/01/02 04:34:48;;;;;;;1.75;1.05;;;4.70;69.50;;;;;;5061839;28;20044;-82
2024/01/02 04:37:38;;;;;;;1.98;1.00;;;4.70;94.80;;;;;;5055388;28;20044;-81
2024/01/02 04:40:26;;;;;;;3.88;1.77;;;4.60;96.20;;;;;;5060455;28;20041;-80
2024/01/02 04:43:14;;;;;;;2.63;1.23;;;4.70;99.90;;;;;;5058355;28;20512;-79
2024/01/02 04:46:03;;;;;;;1.10;1.00;;;4.60;99.90;;;;;;5043166;28;20051;-80
2024/01/02 04:48:50;;;;;;;0.90;0.90;;;4.60;99.90;;;;;;5056176;28;20044;-77
2024/01/02 04:51:38;;;;;;;1.13;1.02;;;4.60;99.90;;;;;;5056957;28;20059;-81
2024/01/02 04:54:26;;;;;;;5.32;1.48;;;4.60;99.90;;;;;;5065602;28;20049;-78
2024/01/02 04:57:14;;;;;;;4.88;1.60;;;4.60;99.90;;;;;;5058780;28;20055;-78
2024/01/02 05:00:05;;;;;;;1.58;1.30;;;4.60;99.90;;;;;;5045690;28;20144;-80
2024/01/02 05:02:53;;;;;;;3.20;1.85;;;4.60;99.90;;;;;;5063999;28;20044;-82
2024/01/02 05:05:41;;;;;;;3.20;1.40;;;4.60;99.90;;;;;;5032887;28;20067;-81
2024/01/02 05:08:29;;;;;;;1.40;1.30;;;4.60;99.90;;;;;;5053066;28;20052;-80
2024/01/02 05:11:18;;;;;;;2.65;1.60;;;4.60;99.90;;;;;;5057822;28;20087;-80
2024/01/02 05:14:07;;;;;;;3.40;1.40;;;4.60;99.90;;;;;;5057985;28;20229;-80
2024/01/02 05:16:57;;;;;;;3.45;1.50;;;4.60;99.90;;;;;;5059923;28;20052;-82
2024/01/02 05:19:44;;;;;;;2.45;1.13;;;4.50;99.90;;;;;;5057085;28;20132;-80
2024/01/02 05:22:33;;;;;;;4.40;1.58;;;4.60;99.90;;;;;;5043689;28;20047;-81
2024/01/02 05:25:20;;;;;;;10.13;1.65;;;4.60;99.90;;;;;;5053487;28;20274;-80
2024/01/02 05:28:08;;;;;;;3.80;1.50;;;4.60;99.90;;;;;;5057934;28;20097;-78
2024/01/02 05:30:55;;;;;;;1.60;1.33;;;4.60;99.90;;;;;;5053311;28;20028;-79
2024/01/02 05:33:45;;;;;;;1.70;1.30;;;4.60;99.90;;;;;;5051675;28;20048;-78
2024/01/02 05:36:33;;;;;;;4.63;1.30;;;4.60;99.90;;;;;;5060708;28;20128;-79
2024/01/02 05:39:24;;;;;;;4.03;1.30;;;4.60;99.90;;;;;;5061058;28;20500;-78
2024/01/02 05:42:11;;;;;;;1.20;1.10;;;4.60;99.90;;;;;;5045685;28;20036;-81
2024/01/02 05:44:59;;;;;;;2.13;1.35;;;4.60;99.90;;;;;;5050390;28;20041;-79
2024/01/02 05:47:46;;;;;;;1.85;1.20;;;4.80;99.90;;;;;;5054614;28;20120;-76
2024/01/02 05:50:36;;;;;;;1.50;1.40;;;4.70;99.90;;;;;;5050606;28;20067;-80
2024/01/02 05:53:23;;;;;;;1.40;1.10;;;4.70;99.90;;;;;;5059262;28;20053;-79
2024/01/02 05:56:12;;;;;;;2.47;1.30;;;4.80;99.90;;;;;;5064968;28;20046;-76
2024/01/02 05:59:00;;;;;;;2.17;1.20;;;4.80;99.90;;;;;;5066346;28;20518;-79
2024/01/02 06:01:48;;;;;;;3.22;1.30;;;4.80;99.90;;;;;;5066692;28;20029;-77
2024/01/02 06:04:39;;;;;;;1.70;1.35;;;4.80;99.90;;;;;;5074850;28;20083;-81
2024/01/02 06:07:27;;;;;;;4.65;1.73;;;4.90;99.90;;;;;;5055516;28;20040;-82
2024/01/02 06:10:14;;;;;;;2.75;1.30;;;4.90;99.90;;;;;;5056788;28;20041;-83
2024/01/02 06:13:03;;;;;;;1.33;1.15;;;4.90;99.90;;;;;;5048830;28;20418;-78
2024/01/02 06:15:51;;;;;;;2.80;1.15;;;4.90;99.90;;;;;;5071171;28;20039;-82
2024/01/02 06:18:39;;;;;;;3.17;1.10;;;4.90;99.90;;;;;;5056081;28;20074;-81
2024/01/02 06:21:28;;;;;;;1.40;1.30;;;5.00;99.90;;;;;;5060837;28;20037;-82
2024/01/02 06:24:15;;;;;;;2.10;1.27;;;5.00;99.90;;;;;;5071540;28;20044;-80
2024/01/02 06:27:04;;;;;;;1.35;1.25;;;5.00;99.90;;;;;;5067805;28;20048;-80
2024/01/02 06:29:51;;;;;;;1.70;1.45;;;5.00;99.90;;;;;;5065778;28;20141;-81
2024/01/02 06:32:39;;;;;;;2.58;1.45;;;5.10;99.90;;;;;;5042844;28;20021;-77
2024/01/02 06:35:26;;;;;;;2.45;1.20;;;5.00;99.90;;;;;;5069919;28;20037;-80
2024/01/02 06:38:14;;;;;;;1.30;1.20;;;5.10;99.90;;;;;;5043615;28;20044;-79
2024/01/02 06:41:06;;;;;;;3.95;1.40;;;5.10;99.90;;;;;;5060877;28;20055;-82
2024/01/02 06:43:53;;;;;;;1.20;1.20;;;5.10;99.90;;;;;;5060592;28;20656;-82
2024/01/02 06:46:42;;;;;;;1.63;1.20;;;5.10;99.90;;;;;;5041784;28;20040;-79
2024/01/02 06:49:29;;;;;;;1.08;0.98;;;5.20;99.90;;;;;;5061150;28;20044;-82
2024/01/02 06:52:17;;;;;;;1.30;1.20;;;5.20;99.90;;;;;;5063662;28;20182;-78
2024/01/02 06:55:05;;;;;;;2.83;1.20;;;5.20;99.90;;;;;;5063596;28;20144;-75
2024/01/02 06:57:52;;;;;;;1.50;1.25;;;5.20;99.90;;;;;;5072090;28;20045;-80
2024/01/02 07:00:40;;;;;;;2.80;1.17;;;5.20;99.90;;;;;;5070886;28;20040;-82
2024/01/02 07:03:27;;;;;;;2.63;1.20;;;5.20;99.90;;;;;;5051050;28;20048;-81
2024/01/02 07:06:15;;;;;;;1.15;1.05;;;5.20;99.90;;;;;;5071629;28;20178;-82
2024/01/02 07:09:03;;;;;;;2.42;1.48;;;5.20;99.90;;;;;;5063291;28;20053;-80
2024/01/02 07:11:50;;;;;;;1.75;1.10;;;5.20;99.90;;;;;;5064025;28;20048;-77
2024/01/02 07:14:37;;;;;;;1.50;1.20;;;5.20;99.90;;;;;;5063313;28;20744;-82
2024/01/02 07:17:26;;;;;;;1.17;1.17;;;5.30;99.90;;;;;;5060125;28;20067;-81
2024/01/02 07:20:13;;;;;;;3.95;1.25;;;5.30;99.90;;;;;;5053972;28;20041;-81
2024/01/02 07:23:01;;;;;;;1.38;1.10;;;5.30;99.90;;;;;;5072368;28;20028;-79
2024/01/02 07:25:52;;;;;;;1.67;1.20;;;5.30;99.90;;;;;;5074343;28;20079;-80
2024/01/02 07:28:45;;;;;;;1.77;1.13;;;5.20;99.90;;;;;;5068563;28;20047;-77
2024/01/02 07:32:48;;;;;;;2.50;1.20;;;5.20;99.90;;;;;;5055992;28;20044;-81
2024/01/02 07:39:30;;;;;;;1.27;1.17;;;5.20;99.90;;;;;;5068248;28;20044;-77
2024/01/02 07:42:21;;;;;;;1.65;1.20;;;5.40;99.90;;;;;;5050287;28;20045;-81
2024/01/02 07:45:47;;;;;;;1.30;1.20;;;5.40;99.90;;;;;;5060823;28;20036;-81
2024/01/02 07:52:39;;;;;;;3.33;1.20;;;5.50;99.90;;;;;;4978145;28;20046;-81
2024/01/02 07:55:27;;;;;;;2.65;1.25;;;5.50;99.90;;;;;;4968851;28;20054;-78
2024/01/02 07:58:14;;;;;;;1.58;1.23;;;5.50;99.90;;;;;;4978717;28;20188;-78
2024/01/02 08:01:01;;;;;;;1.15;1.05;;;5.60;99.90;;;;;;4995031;28;20514;-79
2024/01/02 08:03:49;;;;;;;3.08;1.40;;;5.70;99.90;;;;;;4997819;28;20060;-78
2024/01/02 08:06:37;;;;;;;1.38;1.27;;;5.70;99.90;;;;;;5008548;28;20057;-78
2024/01/02 08:09:43;;;;;;;3.20;1.48;;;5.70;99.90;;;;;;5010830;28;20038;-82
2024/01/02 08:12:33;;;;;;;1.40;1.17;;;5.70;99.90;;;;;;5007969;28;20851;-79
2024/01/02 08:15:24;;;;;;;2.85;1.40;;;5.70;99.90;;;;;;4970229;28;20054;-77
2024/01/02 08:18:28;;;;;;;1.95;1.33;;;5.80;99.90;;;;;;4973134;28;20061;-79
2024/01/02 08:21:27;;;;;;;2.25;1.05;;;5.90;99.90;;;;;;4988640;28;20075;-82
2024/01/02 08:24:23;;;;;;;1.20;1.10;;;5.80;99.90;;;;;;4980382;28;20200;-78
2024/01/02 08:27:25;;;;;;;1.30;1.23;;;5.90;99.90;;;;;;5049795;28;20037;-76
2024/01/02 08:30:40;;;;;;;1.45;1.35;;;5.90;99.90;;;;;;5047292;28;20048;-81
2024/01/02 08:33:32;;;;;;;1.65;1.42;;;5.90;99.90;;;;;;5052569;28;20031;-78
2024/01/02 08:36:27;;;;;;;1.35;1.10;;;5.90;99.90;;;;;;5049225;28;20056;-81
2024/01/02 08:39:22;;;;;;;1.20;1.00;;;6.00;99.90;;;;;;5054663;28;20025;-78
2024/01/02 08:42:10;;;;;;;1.95;1.15;;;6.00;99.90;;;;;;5057575;28;20123;-79
2024/01/02 08:44:57;;;;;;;2.10;1.20;;;6.00;99.90;;;;;;5051291;28;20068;-78
2024/01/02 08:47:47;;;;;;;2.00;1.10;;;6.10;99.90;;;;;;5041521;28;20056;-80
2024/01/02 08:50:35;;;;;;;1.95;1.23;;;6.10;99.90;;;;;;5040410;28;20045;-78
2024/01/02 08:53:24;;;;;;;2.03;1.40;;;6.20;99.90;;;;;;5027303;28;20536;-80
2024/01/02 08:56:13;;;;;;;2.58;0.98;;;6.20;99.90;;;;;;5062467;28;20563;-79
2024/01/02 08:59:03;;;;;;;1.10;1.10;;;6.20;99.90;;;;;;5061658;28;20056;-79
2024/01/02 09:01:57;;;;;;;1.20;1.10;;;6.20;99.90;;;;;;5064292;28;20067;-78
2024/01/02 09:04:47;;;;;;;1.20;1.10;;;6.30;99.90;;;;;;5058577;28;20048;-82
2024/01/02 09:07:44;;;;;;;1.20;0.90;;;6.40;99.90;;;;;;5067320;28;20035;-77
2024/01/02 09:10:44;;;;;;;1.70;1.17;;;6.50;99.90;;;;;;5061166;28;20489;-77
2024/01/02 09:13:37;;;;;;;1.13;1.02;;;6.60;99.90;;;;;;5058900;28;20673;-79
2024/01/02 09:16:30;;;;;;;2.30;1.98;;;6.70;99.90;;;;;;5057093;28;20041;-78
2024/01/02 09:19:17;;;;;;;1.52;0.98;;;6.90;99.90;;;;;;5059179;28;20564;-78
2024/01/02 09:22:04;;;;;;;1.65;0.95;;;7.00;99.90;;;;;;5053427;28;20040;-78
2024/01/02 09:24:55;;;;;;;3.22;0.93;;;7.10;99.90;;;;;;5056597;28;20583;-81
2024/01/02 09:27:45;;;;;;;0.70;0.70;;;7.10;99.90;;;;;;5055309;28;20045;-76
2024/01/02 09:30:33;;;;;;;0.70;0.70;;;7.20;99.90;;;;;;5061698;28;20040;-78
2024/01/02 09:33:26;;;;;;;0.80;0.80;;;7.30;99.90;;;;;;5067925;28;20136;-79
2024/01/02 09:36:18;;;;;;;0.70;0.70;;;7.40;99.90;;;;;;5063964;28;20063;-81
2024/01/02 09:39:17;;;;;;;0.75;0.75;;;7.40;98.80;;;;;;5045721;28;20083;-81
2024/01/02 09:43:07;;;;;;;0.93;0.70;;;7.40;82.40;;;;;;5053792;28;20044;-82
2024/01/02 09:46:13;;;;;;;0.70;0.70;;;7.50;35.30;;;;;;5056520;28;20187;-83
2024/01/02 09:49:20;;;;;;;1.08;0.80;;;7.50;2.30;;;;;;5043287;28;20049;-80
2024/01/02 09:52:38;;;;;;;1.13;1.00;;;7.60;1.00;;;;;;5057164;28;20521;-81
2024/01/02 09:55:52;;;;;;;0.80;0.80;;;7.60;1.00;;;;;;5035730;28;20041;-81
2024/01/02 09:58:59;;;;;;;0.98;0.90;;;7.60;1.00;;;;;;5054166;28;20063;-80
2024/01/02 10:02:13;;;;;;;1.10;1.00;;;7.70;1.00;;;;;;5057170;28;20039;-78
2024/01/02 10:05:12;;;;;;;0.80;0.80;;;7.70;1.00;;;;;;5047022;28;20741;-82
2024/01/02 10:08:05;;;;;;;0.85;0.85;;;7.80;1.00;;;;;;5036963;28;20046;-79
2024/01/02 10:11:26;;;;;;;0.98;0.85;;;7.80;1.00;;;;;;5034423;28;20071;-81
2024/01/02 10:14:27;;;;;;;1.30;0.82;;;7.80;1.00;;;;;;5040012;28;20048;-79
2024/01/02 10:17:55;;;;;;;1.58;1.08;;;7.90;1.00;;;;;;5038718;28;20049;-82
2024/01/02 10:21:40;;;;;;;0.98;0.98;;;7.90;1.00;;;;;;5037388;28;20159;-81
2024/01/02 10:24:57;;;;;;;0.80;0.80;;;8.00;99.90;;;;;;5041057;28;20140;-81
2024/01/02 10:28:14;;;;;;;0.88;0.80;;;8.00;99.90;;;;;;5045626;28;20048;-81
2024/01/02 10:31:42;;;;;;;0.70;0.70;;;8.00;99.90;;;;;;5039372;28;20438;-83
2024/01/02 10:34:54;;;;;;;0.70;0.70;;;8.10;99.90;;;;;;5030215;28;20056;-78
2024/01/02 10:37:49;;;;;;;;;;;8.10;99.90;;;;;;5063968;28;20690;-79
2024/01/02 10:40:42;;;;;;;0.80;0.80;;;8.10;99.90;;;;;;5067941;28;20007;-81
2024/01/02 10:43:48;;;;;;;0.90;0.80;;;8.10;99.90;;;;;;5059250;28;20041;-79
2024/01/02 10:46:56;;;;;;;1.00;0.80;;;8.00;99.90;;;;;;5068450;28;20036;-77
2024/01/02 10:50:02;;;;;;;0.85;0.85;;;8.10;99.90;;;;;;5063906;28;20119;-81
2024/01/02 10:53:25;;;;;;;0.80;0.80;;;8.10;99.90;;;;;;5033926;28;20055;-79
2024/01/02 10:56:43;;;;;;;0.70;0.70;;;8.20;99.90;;;;;;5053968;28;20054;-78
2024/01/02 11:00:07;;;;;;;0.80;0.80;;;8.20;99.90;;;;;;5062388;28;20123;-81
2024/01/02 11:03:16;;;;;;;0.77;0.77;;;8.20;28.80;;;;;;5062082;28;20079;-81
2024/01/02 11:06:18;;;;;;;1.75;0.70;;;8.30;1.00;;;;;;5054792;28;20032;-80
2024/01/02 11:09:26;;;;;;;0.88;0.80;;;8.40;99.90;;;;;;5032586;28;20171;-81
2024/01/02 11:12:19;;;;;;;1.58;1.48;;;8.50;99.90;;;;;;5058401;28;20025;-79
2024/01/02 11:15:14;;;;;;;0.70;0.70;;;8.50;99.90;;;;;;5060067;28;20076;-80
2024/01/02 11:18:11;;;;;;;0.93;0.90;;;8.60;99.90;;;;;;5066852;28;20052;-80
2024/01/02 11:21:46;;;;;;;0.70;0.70;;;8.60;99.90;;;;;;5070934;28;20079;-81
2024/01/02 11:24:53;;;;;;;0.90;0.90;;;8.30;22.70;;;;;;5063446;28;20573;-80
2024/01/02 11:27:54;;;;;;;1.30;1.08;;;8.10;99.90;;;;;;5065067;28;20206;-79
2024/01/02 11:30:43;;;;;;;1.17;1.00;;;8.10;99.90;;;;;;5072023;28;20517;-78
2024/01/02 11:33:46;;;;;;;2.92;0.90;;;8.10;99.90;;;;;;5050410;28;20081;-80
2024/01/02 11:37:06;;;;;;;0.90;0.90;;;8.10;99.90;;;;;;5049991;28;20078;-79
2024/01/02 11:40:13;;;;;;;0.80;0.80;;;8.00;99.90;;;;;;5063621;28;20112;-75
2024/01/02 11:43:22;;;;;;;1.13;1.02;;;8.10;99.90;;;;;;5040992;28;20053;-80
2024/01/02 11:46:16;;;;;;;0.70;0.70;;;8.20;99.90;;;;;;5041363;28;20037;-77
2024/01/02 11:49:10;;;;;;;1.63;1.00;;;8.20;99.90;;;;;;5045898;28;20815;-79
2024/01/02 11:52:10;;;;;;;4.47;1.70;;;8.20;99.90;;;;;;5042537;28;20044;-78
2024/01/02 11:55:18;;;;;;;1.25;0.95;;;8.20;99.90;;;;;;5046699;28;20137;-80
2024/01/02 11:58:40;;;;;;;0.80;0.80;;;8.10;99.90;;;;;;5051463;28;20109;-81
2024/01/02 12:01:52;;;;;;;2.53;1.00;;;8.10;99.90;;;;;;5041689;28;20048;-83
2024/01/02 12:05:06;;;;;;;3.63;0.90;;;8.10;99.90;;;;;;5044385;28;20101;-80
2024/01/02 12:07:56;;;;;;;1.50;0.82;;;8.20;99.90;;;;;;5044868;28;20057;-82
2024/01/02 12:10:49;;;;;;;1.05;0.80;;;8.10;99.90;;;;;;5042966;28;20056;-79
2024/01/02 12:13:45;;;;;;;1.13;1.00;;;8.00;1.00;;;;;;5037047;28;20542;-80
2024/01/02 12:16:51;;;;;;;0.90;0.90;;;7.90;1.00;;;;;;5041656;28;20049;-81
2024/01/02 12:20:11;;;;;;;2.15;1.05;;;7.90;1.00;;;;;;5040548;28;20045;-81
2024/01/02 12:23:03;;;;;;;1.20;0.80;;;7.80;1.00;;;;;;5051520;28;20037;-79
2024/01/02 12:25:57;;;;;;;1.95;1.10;;;7.80;21.90;;;;;;5040630;28;20040;-78
2024/01/02 12:28:51;;;;;;;0.88;0.85;;;7.80;34.00;;;;;;5045647;28;20065;-78
2024/01/02 12:31:51;;;;;;;1.10;1.10;;;7.80;39.50;;;;;;5035779;28;20120;-83
2024/01/02 12:35:01;;;;;;;1.23;1.00;;;7.70;82.40;;;;;;5039191;28;20055;-81
2024/01/02 12:38:16;;;;;;;1.52;1.00;;;7.70;94.50;;;;;;5044590;28;20044;-82
2024/01/02 12:41:11;;;;;;;0.90;0.90;;;7.80;99.90;;;;;;5058411;28;20040;-80
2024/01/02 12:44:02;;;;;;;1.35;1.00;;;7.70;99.90;;;;;;5058673;28;20537;-82
2024/01/02 12:47:02;;;;;;;1.30;1.20;;;7.70;99.90;;;;;;5062221;28;20133;-78
2024/01/02 12:50:03;;;;;;;3.17;1.15;;;7.70;99.90;;;;;;5078024;28;20020;-79
2024/01/02 12:53:14;;;;;;;0.93;0.93;;;7.70;99.90;;;;;;5066824;28;20194;-80
2024/01/02 12:56:24;;;;;;;1.60;1.08;;;7.70;99.90;;;;;;5057256;28;20057;-78
2024/01/02 12:59:38;;;;;;;1.30;1.20;;;7.70;99.90;;;;;;5060794;28;20127;-82
2024/01/02 13:02:36;;;;;;;1.85;1.30;;;7.70;99.90;;;;;;5041538;28;20055;-80
2024/01/02 13:05:29;;;;;;;2.00;1.10;;;7.70;99.90;;;;;;5044105;28;20548;-82
2024/01/02 13:08:18;;;;;;;1.05;0.95;;;7.70;99.90;;;;;;5060141;28;20123;-80
2024/01/02 13:11:12;;;;;;;1.50;1.38;;;7.60;99.90;;;;;;5057607;28;20048;-81
2024/01/02 13:14:26;;;;;;;0.90;0.90;;;7.60;99.90;;;;;;5040508;28;20057;-82
2024/01/02 13:17:20;;;;;;;3.00;1.20;;;7.60;99.90;;;;;;5059690;28;20065;-79
2024/01/02 13:20:10;;;;;;;1.00;0.93;;;7.60;99.90;;;;;;5046544;28;20064;-83
2024/01/02 13:23:08;;;;;;;2.15;0.80;;;7.70;99.90;;;;;;5033418;28;20496;-82
2024/01/02 13:26:13;;;;;;;1.42;1.10;;;7.70;99.90;;;;;;5037054;28;20136;-80
2024/01/02 13:29:24;;;;;;;1.90;1.17;;;7.60;99.90;;;;;;5038436;28;20033;-81
2024/01/02 13:32:20;;;;;;;2.20;1.80;;;7.60;99.90;;;;;;5042403;28;20056;-81
2024/01/02 13:35:18;;;;;;;8.20;5.88;;;7.60;99.90;;;;;;5059741;28;20045;-78
2024/01/02 13:38:06;;;;;;;2.83;1.63;;;7.50;99.90;;;;;;5058694;28;20139;-81
2024/01/02 13:41:04;;;;;;;1.30;1.20;;;7.50;99.90;;;;;;5057011;28;20063;-81
2024/01/02 13:43:51;;;;;;;2.50;1.15;;;7.50;99.90;;;;;;5045708;28;20386;-79
2024/01/02 13:46:48;;;;;;;1.20;1.10;;;7.50;99.90;;;;;;5056366;28;20040;-81
2024/01/02 13:49:54;;;;;;;1.23;1.05;;;7.50;99.90;;;;;;5056921;28;20044;-79
2024/01/02 13:52:51;;;;;;;1.63;1.10;;;7.50;99.90;;;;;;5061134;28;21185;-78
2024/01/02 13:55:56;;;;;;;1.20;1.10;;;7.50;99.90;;;;;;5057949;28;20049;-80
2024/01/02 13:59:07;;;;;;;1.35;1.10;;;7.50;99.90;;;;;;5037328;28;20589;-78
2024/01/02 14:01:55;;;;;;;1.30;1.20;;;7.50;99.90;;;;;;5037364;28;20099;-76
2024/01/02 14:04:44;;;;;;;1.20;1.10;;;7.50;99.90;;;;;;5031118;28;21378;-77
2024/01/02 14:07:33;;;;;;;2.80;1.30;;;7.60;99.90;;;;;;5027898;28;20421;-78
2024/01/02 14:10:37;;;;;;;2.10;1.17;;;7.50;99.90;;;;;;5037082;28;20037;-79
2024/01/02 14:13:34;;;;;;;1.23;1.10;;;7.50;99.90;;;;;;5033489;28;20306;-79
2024/01/02 14:16:23;;;;;;;0.95;0.90;;;7.50;99.90;;;;;;5034433;28;20310;-78
2024/01/02 14:19:12;;;;;;;1.48;1.27;;;7.50;99.90;;;;;;5031108;28;20049;-80
2024/01/02 14:22:47;;;;;;;2.17;1.50;;;7.50;99.90;;;;;;5045024;28;20117;-78
2024/01/02 14:25:59;;;;;;;1.55;1.40;;;7.50;99.90;;;;;;5022005;28;20045;-81
2024/01/02 14:29:14;;;;;;;1.60;1.20;;;7.50;99.90;;;;;;5041255;28;20044;-80
2024/01/02 14:32:16;;;;;;;1.70;1.17;;;7.50;99.90;;;;;;5037928;28;20056;-81
2024/01/02 14:35:40;;;;;;;0.80;0.80;;;7.50;99.90;;;;;;5039942;28;20736;-79
2024/01/02 14:39:10;;;;;;;0.90;0.90;;;7.50;99.90;;;;;;5039207;28;20048;-80
2024/01/02 14:42:14;;;;;;;1.17;1.00;;;7.60;99.90;;;;;;5042435;28;20052;-81
2024/01/02 14:45:41;;;;;;;1.05;0.90;;;7.60;99.90;;;;;;5028069;28;20049;-81
2024/01/02 14:49:03;;;;;;;3.30;0.90;;;7.80;99.90;;;;;;5032419;28;20107;-80
2024/01/02 14:52:16;;;;;;;1.13;1.00;;;7.80;99.90;;;;;;5044624;28;20045;-81
2024/01/02 14:55:33;;;;;;;1.48;1.20;;;7.80;99.90;;;;;;5030318;28;20098;-80
2024/01/02 14:59:15;;;;;;;2.92;2.15;;;7.80;99.90;;;;;;5042617;28;20484;-80
2024/01/02 15:02:16;;;;;;;1.17;1.02;;;7.80;99.90;;;;;;5044681;28;20672;-79
2024/01/02 15:05:15;;;;;;;1.65;1.30;;;7.80;99.90;;;;;;5043488;28;20064;-81
2024/01/02 15:08:50;;;;;;;2.25;1.35;;;7.80;99.90;;;;;;5048064;28;20093;-80
2024/01/02 15:12:17;;;;;;;7.60;3.47;;;7.70;99.90;;;;;;5051198;28;20041;-78
2024/01/02 15:15:40;;;;;;;2.10;1.27;;;7.70;99.90;;;;;;5053834;28;20241;-79
2024/01/02 15:19:12;;;;;;;3.72;2.47;;;7.80;99.90;;;;;;5051182;28;20029;-79
2024/01/02 15:22:29;;;;;;;2.80;1.73;;;7.70;99.90;;;;;;5053573;28;20064;-77
2024/01/02 15:25:23;;;;;;;2.83;1.52;;;7.70;99.90;;;;;;5046372;28;20494;-78
2024/01/02 15:28:15;;;;;;;1.10;1.00;;;7.70;99.90;;;;;;5031689;28;20052;-78
2024/01/02 15:31:14;;;;;;;0.80;0.80;;;7.70;99.90;;;;;;5046043;28;20043;-75
2024/01/02 15:34:50;;;;;;;2.03;1.57;;;7.70;99.90;;;;;;5067874;28;20104;-77
2024/01/02 15:38:17;;;;;;;2.42;1.80;;;7.70;99.90;;;;;;5041868;28;20064;-81